Monday, June 26, 2017, 1:13 PM EDT
Back to Local

KAFN, Jaffrey Muni-silver Ranch

Location: Jaffrey, NH, United States Lat: 42.8
Local Time: 1:13 PM EDT (17:13 GMT) Lon: -72
Time Zone: US/Eastern Elev: 1040 ft

Show me the last for .
Show Decoded

2017-06-26 12:52 METAR KAFN 261652Z AUTO VRB04KT 10SM SCT055 OVC080 21/10 A3000 RMK AO2 SLP159
                 T02060100 TSNO =
2017-06-26 11:52 METAR KAFN 261552Z AUTO VRB04KT 10SM FEW048 BKN060 22/09 A3000 RMK AO2 SLP159
                 T02170094 TSNO =
2017-06-26 10:52 METAR KAFN 261452Z AUTO 31007KT 10SM BKN049 BKN060 20/09 A3000 RMK AO2 SLP163
                 T02000094 51003 TSNO =
2017-06-26 09:52 METAR KAFN 261352Z AUTO VRB04G14KT 10SM FEW039 FEW048 19/09 A3000 RMK AO2 SLP162
                 T01940094 TSNO =
2017-06-26 08:52 METAR KAFN 261252Z AUTO 33006KT 10SM CLR 18/11 A3000 RMK AO2 SLP162 T01780106
                 TSNO =
2017-06-26 07:52 METAR KAFN 261152Z AUTO 00000KT 10SM CLR 16/11 A3000 RMK AO2 SLP160 70003
                 T01610106 10161 20111 52013 TSNO =
2017-06-26 06:52 METAR KAFN 261052Z AUTO 00000KT 10SM CLR 14/12 A2998 RMK AO2 SLP155 T01390122
                 TSNO =
2017-06-26 05:52 METAR KAFN 260952Z AUTO 00000KT 10SM CLR 11/11 A2997 RMK AO2 SLP151 T01110111
                 TSNO =
2017-06-26 04:52 METAR KAFN 260852Z AUTO 00000KT 10SM CLR 12/12 A2996 RMK AO2 SLP146 T01170117
                 55001 TSNO =
2017-06-26 03:52 METAR KAFN 260752Z AUTO 19005KT 10SM SCT110 13/12 A2995 RMK AO2 SLP142 T01330122
                 TSNO =
2017-06-26 02:52 METAR KAFN 260652Z AUTO 20004KT 10SM BKN120 14/13 A2995 RMK AO2 SLP142 T01440133
                 TSNO =
2017-06-26 01:52 METAR KAFN 260552Z AUTO 20004KT 10SM CLR 15/13 A2996 RMK AO2 RAB03E13 SLP146
                 P0000 60002 T01500133 10178 20150 50000 TSNO =
2017-06-26 00:52 METAR KAFN 260452Z AUTO 19003KT 10SM FEW055 SCT090 BKN110 16/14 A2996 RMK AO2
                 RAB41E50 SLP147 P0000 T01560139 402670122 TSNO =
2017-06-25 23:52 METAR KAFN 260352Z AUTO 20007KT 10SM BKN080 OVC095 16/15 A2999 RMK AO2 SLP154
                 T01610150 TSNO =
2017-06-25 22:52 METAR KAFN 260252Z AUTO 18003KT 10SM BKN075 BKN095 OVC110 16/16 A2996 RMK AO2
                 SLP147 60002 T01560156 51014 TSNO =
2017-06-25 21:52 METAR KAFN 260152Z AUTO VRB04KT 10SM FEW090 FEW110 16/15 A2995 RMK AO2 RAE25
                 SLP143 P0002 T01560150 TSNO =
2017-06-25 20:52 METAR KAFN 260052Z AUTO VRB05KT 10SM -RA BKN070 BKN085 OVC100 18/15 A2995 RMK
                 AO2 RAB49 SLP144 P0000 T01780150 TSNO =
2017-06-25 19:52 METAR KAFN 252352Z AUTO 00000KT 10SM CLR 18/14 A2992 RMK AO2 RAE19 SLP133 P0000
                 60001 T01780139 10267 20178 53008 TSNO =
2017-06-25 18:52 METAR KAFN 252252Z AUTO 23006KT 10SM RA FEW049 BKN085 OVC110 22/14 A2991 RMK AO2
                 RAB2153E00B39 SLP129 P0001 T02170144 TSNO =
2017-06-25 17:52 METAR KAFN 252152Z AUTO 23005KT 10SM SCT050 BKN075 OVC120 24/12 A2990 RMK AO2
                 SLP125 T02440122 TSNO =
2017-06-25 16:52 METAR KAFN 252052Z AUTO 22007KT 10SM SCT075 25/12 A2989 RMK AO2 SLP124 T02500122
                 56012 TSNO =
2017-06-25 15:52 METAR KAFN 251952Z AUTO 24007G14KT 10SM CLR 26/09 A2990 RMK AO2 SLP125 T02610094
                 TSNO =
2017-06-25 14:52 METAR KAFN 251852Z AUTO VRB04G15KT 10SM FEW100 26/11 A2992 RMK AO2 SLP132
                 T02560111 TSNO =
2017-06-25 13:52 METAR KAFN 251752Z AUTO 21010G16KT 10SM FEW060 SCT100 26/12 A2993 RMK AO2 SLP134
                 T02560117 10261 20183 58013 TSNO =

Support USWX by starting your Amazon purchase here.